UAL9905 KLAX-KBFI
Flight info
| Callsign | UAL9905 |
|---|---|
| Flight time | 2h 5m |
| Altitude | 40000 |
| Route | SUMMR2 SCTRR SNS RBL BTG OLM2 |
| Aircraft | B772/H-SDE2E3FGHIJ5LORVWXY/LB1D1 |
Departure
| Time | 2026-05-07 17:27 |
|---|---|
| Airport | Los Angeles International Airport (KLAX) |
Arrival
| Time | 2026-05-07 19:32 |
|---|---|
| Airport | King County International Airport - Boeing Field (KBFI) |
| Time | Latitude | Longitude | Altitude | Speed | Heading |
|---|---|---|---|---|---|
| 2026-05-07 17:04 | 33.94237 | -118.39138 | 108 ft | 0 kts | 353° |
| 2026-05-07 17:15 | 33.94235 | -118.39138 | 99 ft | 3 kts | 353° |
| 2026-05-07 17:15 | 33.94220 | -118.39136 | 99 ft | 3 kts | 353° |
| 2026-05-07 17:15 | 33.94201 | -118.39133 | 98 ft | 3 kts | 353° |
| 2026-05-07 17:16 | 33.94185 | -118.39130 | 99 ft | 0 kts | 353° |
| 2026-05-07 17:20 | 33.94191 | -118.39130 | 98 ft | 0 kts | 5° |
| 2026-05-07 17:21 | 33.94195 | -118.39129 | 99 ft | 4 kts | 12° |
| 2026-05-07 17:21 | 33.94204 | -118.39099 | 99 ft | 4 kts | 107° |
| 2026-05-07 17:21 | 33.94179 | -118.39082 | 99 ft | 4 kts | 165° |
| 2026-05-07 17:21 | 33.94150 | -118.39075 | 100 ft | 4 kts | 170° |
| 2026-05-07 17:22 | 33.94148 | -118.39075 | 100 ft | 0 kts | 170° |
| 2026-05-07 17:23 | 33.94118 | -118.39069 | 101 ft | 13 kts | 170° |
| 2026-05-07 17:23 | 33.94035 | -118.39026 | 105 ft | 13 kts | 148° |
| 2026-05-07 17:23 | 33.93986 | -118.38940 | 107 ft | 13 kts | 94° |
| 2026-05-07 17:23 | 33.94001 | -118.38809 | 108 ft | 24 kts | 82° |
| 2026-05-07 17:24 | 33.94020 | -118.38604 | 107 ft | 25 kts | 83° |
| 2026-05-07 17:24 | 33.94040 | -118.38396 | 106 ft | 25 kts | 83° |
| 2026-05-07 17:24 | 33.94063 | -118.38189 | 108 ft | 25 kts | 83° |
| 2026-05-07 17:24 | 33.94071 | -118.38111 | 107 ft | 0 kts | 82° |
| 2026-05-07 17:26 | 33.94073 | -118.38098 | 107 ft | 10 kts | 82° |
| 2026-05-07 17:26 | 33.94054 | -118.38008 | 109 ft | 11 kts | 142° |
| 2026-05-07 17:26 | 33.93989 | -118.38025 | 111 ft | 10 kts | 236° |
| 2026-05-07 17:26 | 33.93968 | -118.38177 | 110 ft | 40 kts | 262° |
| 2026-05-07 17:27 | 33.93906 | -118.38841 | 110 ft | 120 kts | 264° |
| 2026-05-07 17:27 | 33.93767 | -118.40128 | 274 ft | 180 kts | 263° |
| 2026-05-07 17:27 | 33.93620 | -118.41667 | 1221 ft | 192 kts | 262° |
| 2026-05-07 17:27 | 33.93444 | -118.43347 | 2002 ft | 207 kts | 262° |
| 2026-05-07 17:28 | 33.93257 | -118.45194 | 2067 ft | 237 kts | 263° |
| 2026-05-07 17:28 | 33.93066 | -118.47246 | 2443 ft | 253 kts | 264° |
| 2026-05-07 17:28 | 33.92887 | -118.49376 | 3101 ft | 258 kts | 265° |
| 2026-05-07 17:28 | 33.92708 | -118.51551 | 3724 ft | 264 kts | 265° |
| 2026-05-07 17:29 | 33.92526 | -118.53769 | 4390 ft | 267 kts | 265° |
| 2026-05-07 17:29 | 33.92343 | -118.55998 | 4953 ft | 270 kts | 265° |
| 2026-05-07 17:29 | 33.92155 | -118.58262 | 5577 ft | 273 kts | 265° |
| 2026-05-07 17:29 | 33.91965 | -118.60550 | 6253 ft | 276 kts | 265° |
| 2026-05-07 17:30 | 33.91776 | -118.62863 | 6862 ft | 280 kts | 266° |
| 2026-05-07 17:30 | 33.91705 | -118.65217 | 7475 ft | 283 kts | 271° |
| 2026-05-07 17:30 | 33.91710 | -118.67603 | 8110 ft | 286 kts | 272° |
| 2026-05-07 17:30 | 33.91723 | -118.70008 | 8734 ft | 290 kts | 272° |
| 2026-05-07 17:31 | 33.91730 | -118.72453 | 9366 ft | 294 kts | 272° |
| 2026-05-07 17:31 | 33.91729 | -118.74929 | 9996 ft | 298 kts | 272° |
| 2026-05-07 17:31 | 33.91723 | -118.77451 | 10453 ft | 309 kts | 272° |
| 2026-05-07 17:31 | 33.91714 | -118.80146 | 10623 ft | 334 kts | 271° |
| 2026-05-07 17:32 | 33.91702 | -118.83048 | 10808 ft | 358 kts | 271° |
| 2026-05-07 17:32 | 33.91741 | -118.86136 | 11199 ft | 375 kts | 274° |
| 2026-05-07 17:32 | 33.91850 | -118.89315 | 11884 ft | 384 kts | 274° |
| 2026-05-07 17:32 | 33.91928 | -118.91456 | 12446 ft | 388 kts | 274° |
| 2026-05-07 17:33 | 33.92070 | -118.95785 | 13686 ft | 395 kts | 274° |
| 2026-05-07 17:33 | 33.92170 | -118.99117 | 14510 ft | 398 kts | 275° |
| 2026-05-07 17:33 | 33.92643 | -119.02390 | 15091 ft | 399 kts | 294° |
| 2026-05-07 17:33 | 33.93990 | -119.05289 | 15735 ft | 397 kts | 307° |
| 2026-05-07 17:34 | 33.95522 | -119.08091 | 16367 ft | 405 kts | 306° |
| 2026-05-07 17:34 | 33.97047 | -119.10971 | 17194 ft | 408 kts | 305° |
| 2026-05-07 17:34 | 33.98558 | -119.13887 | 18014 ft | 412 kts | 305° |
| 2026-05-07 17:34 | 34.00078 | -119.16836 | 18693 ft | 415 kts | 306° |
| 2026-05-07 17:35 | 34.01853 | -119.19561 | 19144 ft | 416 kts | 321° |
| 2026-05-07 17:35 | 34.04167 | -119.21615 | 19615 ft | 414 kts | 328° |
| 2026-05-07 17:35 | 34.06569 | -119.23583 | 20217 ft | 419 kts | 328° |
| 2026-05-07 17:35 | 34.08957 | -119.25558 | 20894 ft | 421 kts | 328° |
| 2026-05-07 17:36 | 34.11379 | -119.27588 | 21544 ft | 424 kts | 328° |
| 2026-05-07 17:36 | 34.13803 | -119.29646 | 22149 ft | 429 kts | 327° |
| 2026-05-07 17:36 | 34.16254 | -119.31745 | 22751 ft | 433 kts | 327° |
| 2026-05-07 17:36 | 34.18717 | -119.33864 | 23355 ft | 438 kts | 327° |
| 2026-05-07 17:37 | 34.21208 | -119.36015 | 23901 ft | 442 kts | 327° |
| 2026-05-07 17:37 | 34.23720 | -119.38186 | 24419 ft | 445 kts | 327° |
| 2026-05-07 17:37 | 34.26244 | -119.40369 | 24953 ft | 447 kts | 327° |
| 2026-05-07 17:37 | 34.28774 | -119.42557 | 25458 ft | 450 kts | 327° |
| 2026-05-07 17:38 | 34.31331 | -119.44770 | 25942 ft | 453 kts | 327° |
| 2026-05-07 17:38 | 34.33911 | -119.47005 | 26408 ft | 456 kts | 327° |
| 2026-05-07 17:38 | 34.36464 | -119.49218 | 26859 ft | 459 kts | 327° |
| 2026-05-07 17:38 | 34.39067 | -119.51475 | 27288 ft | 462 kts | 327° |
| 2026-05-07 17:39 | 34.41685 | -119.53750 | 27713 ft | 465 kts | 326° |
| 2026-05-07 17:39 | 34.44291 | -119.56116 | 28121 ft | 468 kts | 324° |
| 2026-05-07 17:39 | 34.46869 | -119.58543 | 28495 ft | 471 kts | 324° |
| 2026-05-07 17:39 | 34.49455 | -119.61013 | 28862 ft | 473 kts | 324° |
| 2026-05-07 17:40 | 34.52044 | -119.63491 | 29226 ft | 476 kts | 324° |
| 2026-05-07 17:40 | 34.54648 | -119.65977 | 29590 ft | 478 kts | 324° |
| 2026-05-07 17:40 | 34.57278 | -119.68476 | 29872 ft | 481 kts | 324° |
| 2026-05-07 17:40 | 34.59919 | -119.70981 | 30166 ft | 483 kts | 324° |
| 2026-05-07 17:41 | 34.62575 | -119.73494 | 30409 ft | 485 kts | 324° |
| 2026-05-07 17:41 | 34.65236 | -119.76014 | 30705 ft | 485 kts | 324° |
| 2026-05-07 17:41 | 34.67890 | -119.78527 | 31110 ft | 483 kts | 324° |
| 2026-05-07 17:41 | 34.70529 | -119.81030 | 31491 ft | 480 kts | 324° |
| 2026-05-07 17:42 | 34.73155 | -119.83522 | 31877 ft | 478 kts | 324° |
| 2026-05-07 17:42 | 34.75742 | -119.85981 | 32258 ft | 477 kts | 324° |
| 2026-05-07 17:42 | 34.78385 | -119.88493 | 32643 ft | 475 kts | 324° |
| 2026-05-07 17:42 | 34.80950 | -119.90934 | 33012 ft | 474 kts | 324° |
| 2026-05-07 17:43 | 34.83544 | -119.93403 | 33411 ft | 472 kts | 324° |
| 2026-05-07 17:43 | 34.86121 | -119.95860 | 33817 ft | 470 kts | 324° |
| 2026-05-07 17:43 | 34.88692 | -119.98312 | 34212 ft | 468 kts | 324° |
| 2026-05-07 17:43 | 34.91248 | -120.00751 | 34490 ft | 467 kts | 324° |
| 2026-05-07 17:44 | 34.93804 | -120.03194 | 34791 ft | 466 kts | 324° |
| 2026-05-07 17:44 | 34.96352 | -120.05631 | 35091 ft | 465 kts | 324° |
| 2026-05-07 17:44 | 34.98899 | -120.08068 | 35391 ft | 464 kts | 324° |
| 2026-05-07 17:44 | 35.01432 | -120.10494 | 35656 ft | 463 kts | 324° |
| 2026-05-07 17:45 | 35.03964 | -120.12921 | 35933 ft | 462 kts | 324° |
| 2026-05-07 17:45 | 35.06489 | -120.15343 | 36231 ft | 461 kts | 324° |
| 2026-05-07 17:45 | 35.09010 | -120.17764 | 36501 ft | 460 kts | 324° |
| 2026-05-07 17:45 | 35.11526 | -120.20182 | 36775 ft | 459 kts | 323° |
| 2026-05-07 17:46 | 35.14034 | -120.22593 | 37063 ft | 458 kts | 323° |
| 2026-05-07 17:46 | 35.16532 | -120.24998 | 37332 ft | 457 kts | 323° |
| 2026-05-07 17:46 | 35.19037 | -120.27375 | 37562 ft | 456 kts | 324° |
| 2026-05-07 17:46 | 35.21577 | -120.29707 | 37816 ft | 455 kts | 325° |
| 2026-05-07 17:47 | 35.24123 | -120.32014 | 38074 ft | 455 kts | 325° |
| 2026-05-07 17:47 | 35.26661 | -120.34309 | 38310 ft | 454 kts | 325° |
| 2026-05-07 17:47 | 35.29206 | -120.36620 | 38554 ft | 453 kts | 325° |
| 2026-05-07 17:47 | 35.31729 | -120.38921 | 38774 ft | 453 kts | 324° |
| 2026-05-07 17:48 | 35.34220 | -120.41200 | 38940 ft | 453 kts | 324° |
| 2026-05-07 17:48 | 35.36734 | -120.43506 | 39090 ft | 453 kts | 324° |
| 2026-05-07 17:48 | 35.39265 | -120.45831 | 39231 ft | 453 kts | 324° |
| 2026-05-07 17:48 | 35.41786 | -120.48148 | 39397 ft | 452 kts | 324° |
| 2026-05-07 17:49 | 35.44308 | -120.50468 | 39567 ft | 452 kts | 324° |
| 2026-05-07 17:49 | 35.46824 | -120.52783 | 39746 ft | 452 kts | 324° |
| 2026-05-07 17:49 | 35.49342 | -120.55102 | 39892 ft | 452 kts | 324° |
| 2026-05-07 17:49 | 35.51853 | -120.57416 | 40018 ft | 452 kts | 324° |
| 2026-05-07 17:50 | 35.56068 | -120.61231 | 40121 ft | 453 kts | 325° |
| 2026-05-07 17:50 | 35.61194 | -120.65738 | 40158 ft | 453 kts | 325° |
| 2026-05-07 17:51 | 35.66311 | -120.70235 | 40173 ft | 452 kts | 325° |
| 2026-05-07 17:51 | 35.71419 | -120.74749 | 40173 ft | 452 kts | 325° |
| 2026-05-07 17:52 | 35.76517 | -120.79274 | 40170 ft | 451 kts | 324° |
| 2026-05-07 17:52 | 35.81616 | -120.83808 | 40156 ft | 451 kts | 324° |
| 2026-05-07 17:53 | 35.86670 | -120.88311 | 40162 ft | 452 kts | 324° |
| 2026-05-07 17:53 | 35.91761 | -120.92852 | 40151 ft | 452 kts | 324° |
| 2026-05-07 17:54 | 35.96851 | -120.97399 | 40132 ft | 451 kts | 324° |
| 2026-05-07 17:54 | 36.01933 | -121.01947 | 40152 ft | 451 kts | 324° |
| 2026-05-07 17:55 | 36.07022 | -121.06509 | 40154 ft | 452 kts | 324° |
| 2026-05-07 17:55 | 36.12108 | -121.11077 | 40153 ft | 452 kts | 324° |
| 2026-05-07 17:56 | 36.17195 | -121.15652 | 40148 ft | 453 kts | 323° |
| 2026-05-07 17:56 | 36.22298 | -121.20248 | 40156 ft | 453 kts | 323° |
| 2026-05-07 17:57 | 36.26537 | -121.24072 | 40157 ft | 453 kts | 323° |
| 2026-05-07 17:57 | 36.32459 | -121.29424 | 40164 ft | 453 kts | 323° |
| 2026-05-07 17:58 | 36.37557 | -121.34039 | 40160 ft | 453 kts | 323° |
| 2026-05-07 17:58 | 36.42645 | -121.38653 | 40163 ft | 453 kts | 323° |
| 2026-05-07 17:59 | 36.47747 | -121.43288 | 40160 ft | 454 kts | 323° |
| 2026-05-07 17:59 | 36.52842 | -121.47924 | 40153 ft | 454 kts | 323° |
| 2026-05-07 18:00 | 36.57937 | -121.52568 | 40150 ft | 454 kts | 323° |
| 2026-05-07 18:00 | 36.63058 | -121.57189 | 40143 ft | 454 kts | 327° |
| 2026-05-07 18:01 | 36.68805 | -121.60461 | 40155 ft | 456 kts | 341° |
| 2026-05-07 18:01 | 36.75030 | -121.62008 | 40160 ft | 458 kts | 351° |
| 2026-05-07 18:02 | 36.84522 | -121.63556 | 40161 ft | 459 kts | 351° |
| 2026-05-07 18:03 | 36.90861 | -121.64624 | 40159 ft | 460 kts | 351° |
| 2026-05-07 18:03 | 36.97212 | -121.65736 | 40160 ft | 460 kts | 351° |
| 2026-05-07 18:04 | 37.03509 | -121.66854 | 40157 ft | 460 kts | 351° |
| 2026-05-07 18:04 | 37.09865 | -121.67986 | 40157 ft | 460 kts | 351° |
| 2026-05-07 18:05 | 37.16219 | -121.69118 | 40174 ft | 460 kts | 351° |
| 2026-05-07 18:05 | 37.22569 | -121.70249 | 40180 ft | 461 kts | 351° |
| 2026-05-07 18:06 | 37.28876 | -121.71375 | 40187 ft | 461 kts | 351° |
| 2026-05-07 18:06 | 37.35235 | -121.72513 | 40179 ft | 461 kts | 351° |
| 2026-05-07 18:07 | 37.41595 | -121.73652 | 40182 ft | 461 kts | 351° |
| 2026-05-07 18:07 | 37.47945 | -121.74791 | 40186 ft | 461 kts | 351° |
| 2026-05-07 18:08 | 37.54304 | -121.75934 | 40156 ft | 461 kts | 351° |
| 2026-05-07 18:08 | 37.60662 | -121.77079 | 40153 ft | 462 kts | 351° |
| 2026-05-07 18:09 | 37.67032 | -121.78228 | 40162 ft | 462 kts | 351° |
| 2026-05-07 18:09 | 37.73390 | -121.79377 | 40158 ft | 462 kts | 351° |
| 2026-05-07 18:10 | 37.79753 | -121.80528 | 40158 ft | 462 kts | 351° |
| 2026-05-07 18:10 | 37.86079 | -121.81676 | 40156 ft | 462 kts | 351° |
| 2026-05-07 18:11 | 37.92448 | -121.82832 | 40143 ft | 462 kts | 351° |
| 2026-05-07 18:11 | 37.98822 | -121.83992 | 40157 ft | 462 kts | 351° |
| 2026-05-07 18:12 | 38.05190 | -121.85153 | 40156 ft | 462 kts | 351° |
| 2026-05-07 18:12 | 38.11565 | -121.86316 | 40133 ft | 462 kts | 351° |
| 2026-05-07 18:13 | 38.17902 | -121.87475 | 40125 ft | 463 kts | 351° |
| 2026-05-07 18:13 | 38.24275 | -121.88643 | 40126 ft | 463 kts | 351° |
| 2026-05-07 18:14 | 38.30655 | -121.89814 | 40125 ft | 463 kts | 351° |
| 2026-05-07 18:14 | 38.37028 | -121.90986 | 40152 ft | 463 kts | 351° |
| 2026-05-07 18:15 | 38.43404 | -121.92161 | 40147 ft | 463 kts | 351° |
| 2026-05-07 18:15 | 38.49791 | -121.93339 | 40157 ft | 463 kts | 351° |
| 2026-05-07 18:16 | 38.56180 | -121.94520 | 40156 ft | 464 kts | 351° |
| 2026-05-07 18:16 | 38.62587 | -121.95707 | 40157 ft | 464 kts | 351° |
| 2026-05-07 18:17 | 38.68953 | -121.96888 | 40154 ft | 465 kts | 351° |
| 2026-05-07 18:17 | 38.75359 | -121.98079 | 40149 ft | 465 kts | 351° |
| 2026-05-07 18:18 | 38.81769 | -121.99273 | 40142 ft | 466 kts | 351° |
| 2026-05-07 18:18 | 38.88185 | -122.00470 | 40137 ft | 466 kts | 351° |
| 2026-05-07 18:19 | 38.94611 | -122.01670 | 40140 ft | 466 kts | 351° |
| 2026-05-07 18:19 | 39.01042 | -122.02875 | 40135 ft | 467 kts | 351° |
| 2026-05-07 18:20 | 39.07488 | -122.04084 | 40139 ft | 468 kts | 351° |
| 2026-05-07 18:20 | 39.13893 | -122.05287 | 40147 ft | 468 kts | 351° |
| 2026-05-07 18:21 | 39.20341 | -122.06501 | 40140 ft | 468 kts | 351° |
| 2026-05-07 18:21 | 39.26793 | -122.07718 | 40135 ft | 468 kts | 351° |
| 2026-05-07 18:22 | 39.33251 | -122.08938 | 40137 ft | 468 kts | 351° |
| 2026-05-07 18:22 | 39.39701 | -122.10159 | 40142 ft | 469 kts | 351° |
| 2026-05-07 18:23 | 39.46151 | -122.11383 | 40138 ft | 469 kts | 351° |
| 2026-05-07 18:23 | 39.52608 | -122.12610 | 40141 ft | 469 kts | 351° |
| 2026-05-07 18:24 | 39.59067 | -122.13839 | 40144 ft | 469 kts | 351° |
| 2026-05-07 18:24 | 39.65531 | -122.15073 | 40145 ft | 469 kts | 351° |
| 2026-05-07 18:25 | 39.71998 | -122.16308 | 40148 ft | 470 kts | 351° |
| 2026-05-07 18:25 | 39.78468 | -122.17547 | 40146 ft | 470 kts | 351° |
| 2026-05-07 18:26 | 39.84941 | -122.18789 | 40146 ft | 470 kts | 351° |
| 2026-05-07 18:26 | 39.91376 | -122.20026 | 40149 ft | 471 kts | 351° |
| 2026-05-07 18:27 | 39.97863 | -122.21276 | 40151 ft | 471 kts | 351° |
| 2026-05-07 18:27 | 40.04348 | -122.22526 | 40155 ft | 471 kts | 351° |
| 2026-05-07 18:28 | 40.10838 | -122.23700 | 40158 ft | 471 kts | 355° |
| 2026-05-07 18:28 | 40.17383 | -122.24146 | 40159 ft | 471 kts | 357° |
| 2026-05-07 18:29 | 40.23934 | -122.24461 | 40157 ft | 471 kts | 357° |
| 2026-05-07 18:29 | 40.30484 | -122.24797 | 40152 ft | 471 kts | 357° |
| 2026-05-07 18:30 | 40.37035 | -122.25164 | 40135 ft | 470 kts | 356° |
| 2026-05-07 18:30 | 40.43527 | -122.25543 | 40139 ft | 470 kts | 356° |
| 2026-05-07 18:31 | 40.50057 | -122.25926 | 40140 ft | 469 kts | 356° |
| 2026-05-07 18:31 | 40.56581 | -122.26307 | 40139 ft | 469 kts | 356° |
| 2026-05-07 18:32 | 40.63104 | -122.26689 | 40136 ft | 468 kts | 356° |
| 2026-05-07 18:32 | 40.69610 | -122.27069 | 40132 ft | 468 kts | 356° |
| 2026-05-07 18:33 | 40.76113 | -122.27450 | 40130 ft | 468 kts | 356° |
| 2026-05-07 18:33 | 40.82627 | -122.27833 | 40128 ft | 467 kts | 356° |
| 2026-05-07 18:34 | 40.88020 | -122.28151 | 40129 ft | 467 kts | 356° |
| 2026-05-07 18:34 | 40.95586 | -122.28597 | 40133 ft | 467 kts | 356° |
| 2026-05-07 18:35 | 41.00978 | -122.28916 | 40130 ft | 466 kts | 356° |
| 2026-05-07 18:35 | 41.07476 | -122.29300 | 40133 ft | 466 kts | 356° |
| 2026-05-07 18:36 | 41.13962 | -122.29686 | 40133 ft | 466 kts | 356° |
| 2026-05-07 18:36 | 41.20407 | -122.30069 | 40129 ft | 466 kts | 356° |
| 2026-05-07 18:37 | 41.26884 | -122.30455 | 40133 ft | 465 kts | 356° |
| 2026-05-07 18:37 | 41.33351 | -122.30842 | 40127 ft | 465 kts | 356° |
| 2026-05-07 18:38 | 41.39816 | -122.31227 | 40129 ft | 464 kts | 356° |
| 2026-05-07 18:38 | 41.46244 | -122.31612 | 40127 ft | 465 kts | 356° |
| 2026-05-07 18:39 | 41.52713 | -122.32001 | 40132 ft | 465 kts | 356° |
| 2026-05-07 18:39 | 41.59173 | -122.32390 | 40141 ft | 464 kts | 356° |
| 2026-05-07 18:40 | 41.65599 | -122.32778 | 40147 ft | 464 kts | 356° |
| 2026-05-07 18:40 | 41.72072 | -122.33169 | 40155 ft | 464 kts | 356° |
| 2026-05-07 18:41 | 41.78523 | -122.33560 | 40157 ft | 464 kts | 356° |
| 2026-05-07 18:41 | 41.84971 | -122.33951 | 40156 ft | 464 kts | 356° |
| 2026-05-07 18:42 | 41.91433 | -122.34344 | 40145 ft | 464 kts | 356° |
| 2026-05-07 18:42 | 41.97845 | -122.34734 | 40138 ft | 464 kts | 356° |
| 2026-05-07 18:43 | 42.04299 | -122.35128 | 40125 ft | 463 kts | 356° |
| 2026-05-07 18:43 | 42.10735 | -122.35522 | 40115 ft | 463 kts | 355° |
| 2026-05-07 18:44 | 42.17178 | -122.35916 | 40104 ft | 462 kts | 355° |
| 2026-05-07 18:44 | 42.23605 | -122.36310 | 40107 ft | 462 kts | 355° |
| 2026-05-07 18:45 | 42.29995 | -122.36703 | 40108 ft | 462 kts | 355° |
| 2026-05-07 18:45 | 42.36423 | -122.37100 | 40104 ft | 462 kts | 355° |
| 2026-05-07 18:46 | 42.42844 | -122.37497 | 40108 ft | 461 kts | 355° |
| 2026-05-07 18:46 | 42.49263 | -122.37894 | 40110 ft | 461 kts | 355° |
| 2026-05-07 18:47 | 42.55641 | -122.38290 | 40112 ft | 461 kts | 355° |
| 2026-05-07 18:47 | 42.62061 | -122.38689 | 40113 ft | 461 kts | 355° |
| 2026-05-07 18:48 | 42.68476 | -122.39088 | 40112 ft | 461 kts | 355° |
| 2026-05-07 18:48 | 42.74889 | -122.39489 | 40111 ft | 461 kts | 355° |
| 2026-05-07 18:49 | 42.81294 | -122.39889 | 40111 ft | 460 kts | 355° |
| 2026-05-07 18:49 | 42.87697 | -122.40290 | 40112 ft | 460 kts | 355° |
| 2026-05-07 18:50 | 42.94098 | -122.40692 | 40110 ft | 460 kts | 355° |
| 2026-05-07 18:50 | 43.00447 | -122.41092 | 40109 ft | 460 kts | 355° |
| 2026-05-07 18:51 | 43.06841 | -122.41495 | 40114 ft | 459 kts | 355° |
| 2026-05-07 18:51 | 43.13233 | -122.41899 | 40106 ft | 459 kts | 355° |
| 2026-05-07 18:52 | 43.19606 | -122.42303 | 40113 ft | 458 kts | 355° |
| 2026-05-07 18:52 | 43.25981 | -122.42707 | 40115 ft | 458 kts | 355° |
| 2026-05-07 18:53 | 43.32316 | -122.43110 | 40112 ft | 457 kts | 354° |
| 2026-05-07 18:53 | 43.38676 | -122.43515 | 40123 ft | 457 kts | 354° |
| 2026-05-07 18:54 | 43.45037 | -122.43922 | 40113 ft | 457 kts | 354° |
| 2026-05-07 18:54 | 43.51389 | -122.44328 | 40122 ft | 457 kts | 354° |
| 2026-05-07 18:55 | 43.57740 | -122.44735 | 40123 ft | 457 kts | 354° |
| 2026-05-07 18:55 | 43.64094 | -122.45144 | 40123 ft | 456 kts | 354° |
| 2026-05-07 18:56 | 43.70396 | -122.45550 | 40132 ft | 456 kts | 354° |
| 2026-05-07 18:56 | 43.76726 | -122.45959 | 40145 ft | 455 kts | 354° |
| 2026-05-07 18:57 | 43.83062 | -122.46367 | 40141 ft | 455 kts | 354° |
| 2026-05-07 18:57 | 43.89408 | -122.46780 | 40140 ft | 455 kts | 354° |
| 2026-05-07 18:58 | 43.95704 | -122.47189 | 40155 ft | 455 kts | 354° |
| 2026-05-07 18:58 | 44.02026 | -122.47600 | 40149 ft | 455 kts | 354° |
| 2026-05-07 18:59 | 44.08350 | -122.48012 | 40158 ft | 454 kts | 354° |
| 2026-05-07 18:59 | 44.14666 | -122.48425 | 40157 ft | 454 kts | 354° |
| 2026-05-07 19:00 | 44.20992 | -122.48839 | 40159 ft | 455 kts | 354° |
| 2026-05-07 19:00 | 44.27318 | -122.49255 | 40152 ft | 455 kts | 354° |
| 2026-05-07 19:01 | 44.33640 | -122.49671 | 40156 ft | 454 kts | 353° |
| 2026-05-07 19:01 | 44.39920 | -122.50085 | 40160 ft | 454 kts | 353° |
| 2026-05-07 19:02 | 44.46228 | -122.50502 | 40161 ft | 454 kts | 353° |
| 2026-05-07 19:02 | 44.52542 | -122.50920 | 40161 ft | 454 kts | 353° |
| 2026-05-07 19:03 | 44.58861 | -122.51339 | 40167 ft | 454 kts | 353° |
| 2026-05-07 19:03 | 44.65178 | -122.51759 | 40150 ft | 455 kts | 353° |
| 2026-05-07 19:04 | 44.71499 | -122.52181 | 40161 ft | 455 kts | 353° |
| 2026-05-07 19:04 | 44.77818 | -122.52603 | 40166 ft | 454 kts | 353° |
| 2026-05-07 19:05 | 44.84142 | -122.53026 | 40166 ft | 454 kts | 353° |
| 2026-05-07 19:05 | 44.90456 | -122.53450 | 40169 ft | 454 kts | 353° |
| 2026-05-07 19:06 | 44.96771 | -122.53874 | 40182 ft | 454 kts | 353° |
| 2026-05-07 19:06 | 45.06226 | -122.54512 | 40189 ft | 454 kts | 353° |
| 2026-05-07 19:07 | 45.12506 | -122.54937 | 40188 ft | 454 kts | 353° |
| 2026-05-07 19:07 | 45.18810 | -122.55364 | 40193 ft | 453 kts | 353° |
| 2026-05-07 19:08 | 45.25125 | -122.55793 | 40194 ft | 453 kts | 353° |
| 2026-05-07 19:08 | 45.31413 | -122.56220 | 40193 ft | 453 kts | 353° |
| 2026-05-07 19:09 | 45.37716 | -122.56650 | 40193 ft | 453 kts | 352° |
| 2026-05-07 19:09 | 45.44011 | -122.57081 | 40194 ft | 452 kts | 352° |
| 2026-05-07 19:10 | 45.50261 | -122.57509 | 40193 ft | 452 kts | 352° |
| 2026-05-07 19:10 | 45.56549 | -122.57941 | 40195 ft | 452 kts | 352° |
| 2026-05-07 19:11 | 45.62842 | -122.58374 | 40194 ft | 452 kts | 352° |
| 2026-05-07 19:11 | 45.69136 | -122.58808 | 40213 ft | 452 kts | 352° |
| 2026-05-07 19:12 | 45.75430 | -122.59334 | 40113 ft | 452 kts | 349° |
| 2026-05-07 19:12 | 45.78558 | -122.59992 | 39487 ft | 455 kts | 346° |
| 2026-05-07 19:12 | 45.81672 | -122.60778 | 38836 ft | 460 kts | 345° |
| 2026-05-07 19:13 | 45.84885 | -122.61630 | 38169 ft | 477 kts | 345° |
| 2026-05-07 19:13 | 45.88192 | -122.62498 | 37773 ft | 485 kts | 345° |
| 2026-05-07 19:13 | 45.91474 | -122.63330 | 37675 ft | 473 kts | 346° |
| 2026-05-07 19:13 | 45.94658 | -122.64120 | 37341 ft | 469 kts | 346° |
| 2026-05-07 19:14 | 46.01192 | -122.65744 | 37366 ft | 477 kts | 346° |
| 2026-05-07 19:14 | 46.07744 | -122.67376 | 37367 ft | 483 kts | 346° |
| 2026-05-07 19:15 | 46.14406 | -122.69045 | 37361 ft | 488 kts | 346° |
| 2026-05-07 19:15 | 46.21121 | -122.70739 | 37349 ft | 491 kts | 346° |
| 2026-05-07 19:16 | 46.27816 | -122.72430 | 37334 ft | 493 kts | 346° |
| 2026-05-07 19:16 | 46.31198 | -122.73284 | 37537 ft | 489 kts | 345° |
| 2026-05-07 19:16 | 46.34489 | -122.74109 | 37951 ft | 472 kts | 345° |
| 2026-05-07 19:17 | 46.37704 | -122.74916 | 37695 ft | 462 kts | 345° |
| 2026-05-07 19:17 | 46.40802 | -122.75695 | 36997 ft | 443 kts | 345° |
| 2026-05-07 19:17 | 46.43829 | -122.76462 | 35312 ft | 442 kts | 345° |
| 2026-05-07 19:17 | 46.46959 | -122.77275 | 34011 ft | 471 kts | 346° |
| 2026-05-07 19:18 | 46.50211 | -122.78118 | 32749 ft | 479 kts | 346° |
| 2026-05-07 19:18 | 46.53511 | -122.78965 | 31776 ft | 481 kts | 346° |
| 2026-05-07 19:18 | 46.56785 | -122.79796 | 31197 ft | 473 kts | 346° |
| 2026-05-07 19:18 | 46.59998 | -122.80610 | 30718 ft | 464 kts | 346° |
| 2026-05-07 19:19 | 46.63127 | -122.81405 | 30220 ft | 458 kts | 346° |
| 2026-05-07 19:19 | 46.66241 | -122.82201 | 29543 ft | 452 kts | 346° |
| 2026-05-07 19:19 | 46.69328 | -122.82994 | 28812 ft | 449 kts | 346° |
| 2026-05-07 19:19 | 46.72404 | -122.83786 | 27707 ft | 452 kts | 347° |
| 2026-05-07 19:20 | 46.74514 | -122.84333 | 26759 ft | 459 kts | 347° |
| 2026-05-07 19:20 | 46.78668 | -122.85405 | 24854 ft | 448 kts | 348° |
| 2026-05-07 19:20 | 46.81730 | -122.86192 | 23034 ft | 454 kts | 348° |
| 2026-05-07 19:20 | 46.84887 | -122.87008 | 21807 ft | 461 kts | 348° |
| 2026-05-07 19:21 | 46.86971 | -122.87545 | 21274 ft | 458 kts | 348° |
| 2026-05-07 19:21 | 46.90093 | -122.88351 | 20595 ft | 452 kts | 348° |
| 2026-05-07 19:21 | 46.93162 | -122.89102 | 19866 ft | 438 kts | 352° |
| 2026-05-07 19:21 | 46.96217 | -122.88896 | 18916 ft | 445 kts | 12° |
| 2026-05-07 19:22 | 46.99130 | -122.87347 | 18098 ft | 446 kts | 26° |
| 2026-05-07 19:22 | 47.01655 | -122.84786 | 17449 ft | 440 kts | 40° |
| 2026-05-07 19:22 | 47.03901 | -122.81777 | 16840 ft | 433 kts | 41° |
| 2026-05-07 19:22 | 47.06115 | -122.78825 | 16195 ft | 428 kts | 41° |
| 2026-05-07 19:23 | 47.08333 | -122.75948 | 15516 ft | 424 kts | 40° |
| 2026-05-07 19:23 | 47.10528 | -122.73138 | 14823 ft | 405 kts | 40° |
| 2026-05-07 19:23 | 47.12598 | -122.70494 | 13420 ft | 390 kts | 40° |
| 2026-05-07 19:23 | 47.14319 | -122.68296 | 12055 ft | 382 kts | 40° |
| 2026-05-07 19:24 | 47.15970 | -122.66184 | 10751 ft | 376 kts | 40° |
| 2026-05-07 19:24 | 47.17909 | -122.63700 | 9320 ft | 365 kts | 40° |
| 2026-05-07 19:24 | 47.19819 | -122.61248 | 7837 ft | 370 kts | 40° |
| 2026-05-07 19:24 | 47.21729 | -122.58793 | 6801 ft | 360 kts | 40° |
| 2026-05-07 19:25 | 47.23644 | -122.56328 | 6140 ft | 363 kts | 40° |
| 2026-05-07 19:25 | 47.25522 | -122.53908 | 6070 ft | 357 kts | 40° |
| 2026-05-07 19:25 | 47.27455 | -122.51417 | 6112 ft | 383 kts | 40° |
| 2026-05-07 19:25 | 47.29422 | -122.48879 | 6515 ft | 365 kts | 40° |
| 2026-05-07 19:26 | 47.31154 | -122.46423 | 6069 ft | 334 kts | 50° |
| 2026-05-07 19:26 | 47.32368 | -122.43675 | 5475 ft | 307 kts | 61° |
| 2026-05-07 19:26 | 47.33225 | -122.40952 | 5093 ft | 279 kts | 66° |
| 2026-05-07 19:26 | 47.33827 | -122.38351 | 4644 ft | 260 kts | 73° |
| 2026-05-07 19:27 | 47.34261 | -122.35841 | 4341 ft | 247 kts | 75° |
| 2026-05-07 19:27 | 47.34665 | -122.33374 | 4088 ft | 253 kts | 76° |
| 2026-05-07 19:27 | 47.35094 | -122.30794 | 3811 ft | 261 kts | 76° |
| 2026-05-07 19:27 | 47.35523 | -122.28240 | 3579 ft | 258 kts | 76° |
| 2026-05-07 19:28 | 47.35954 | -122.25685 | 3465 ft | 249 kts | 76° |
| 2026-05-07 19:28 | 47.36366 | -122.23249 | 3324 ft | 242 kts | 76° |
| 2026-05-07 19:28 | 47.36961 | -122.21030 | 3201 ft | 227 kts | 51° |
| 2026-05-07 19:28 | 47.38168 | -122.19729 | 3114 ft | 215 kts | 16° |
| 2026-05-07 19:29 | 47.39628 | -122.19688 | 2868 ft | 210 kts | 344° |
| 2026-05-07 19:29 | 47.40978 | -122.20409 | 2613 ft | 205 kts | 337° |
| 2026-05-07 19:29 | 47.42283 | -122.21222 | 2361 ft | 201 kts | 335° |
| 2026-05-07 19:29 | 47.43496 | -122.22201 | 2145 ft | 195 kts | 328° |
| 2026-05-07 19:30 | 47.44622 | -122.23252 | 1857 ft | 191 kts | 329° |
| 2026-05-07 19:30 | 47.45763 | -122.24195 | 1491 ft | 179 kts | 330° |
| 2026-05-07 19:30 | 47.46871 | -122.25077 | 1311 ft | 178 kts | 330° |
| 2026-05-07 19:30 | 47.47925 | -122.25957 | 991 ft | 167 kts | 328° |
| 2026-05-07 19:31 | 47.48896 | -122.26819 | 732 ft | 156 kts | 332° |
| 2026-05-07 19:31 | 47.49798 | -122.27556 | 580 ft | 141 kts | 332° |
| 2026-05-07 19:31 | 47.50611 | -122.28219 | 330 ft | 130 kts | 330° |
| 2026-05-07 19:31 | 47.51386 | -122.28886 | 161 ft | 128 kts | 330° |
| 2026-05-07 19:32 | 47.52144 | -122.29519 | 31 ft | 122 kts | 331° |
| 2026-05-07 19:32 | 47.52791 | -122.30069 | 27 ft | 86 kts | 330° |
| 2026-05-07 19:32 | 47.53196 | -122.30411 | 30 ft | 55 kts | 331° |
| 2026-05-07 19:32 | 47.53371 | -122.30564 | 29 ft | 10 kts | 314° |
| 2026-05-07 19:33 | 47.53375 | -122.30654 | 29 ft | 9 kts | 243° |
| 2026-05-07 19:33 | 47.53316 | -122.30663 | 30 ft | 10 kts | 162° |
| 2026-05-07 19:33 | 47.53257 | -122.30616 | 29 ft | 10 kts | 150° |
| 2026-05-07 19:33 | 47.53198 | -122.30567 | 30 ft | 10 kts | 151° |
| 2026-05-07 19:34 | 47.53136 | -122.30514 | 31 ft | 14 kts | 149° |
| 2026-05-07 19:34 | 47.52973 | -122.30374 | 31 ft | 34 kts | 150° |
| 2026-05-07 19:34 | 47.52777 | -122.30210 | 29 ft | 31 kts | 150° |
| 2026-05-07 19:34 | 47.52592 | -122.30050 | 30 ft | 33 kts | 150° |
| 2026-05-07 19:35 | 47.52380 | -122.29871 | 30 ft | 36 kts | 150° |
| 2026-05-07 19:35 | 47.52161 | -122.29697 | 31 ft | 34 kts | 154° |
| 2026-05-07 19:35 | 47.51970 | -122.29538 | 31 ft | 30 kts | 150° |
| 2026-05-07 19:35 | 47.51775 | -122.29374 | 31 ft | 34 kts | 149° |
| 2026-05-07 19:36 | 47.51647 | -122.29302 | 31 ft | 13 kts | 202° |
| 2026-05-07 19:36 | 47.51617 | -122.29363 | 32 ft | 7 kts | 244° |
| 2026-05-07 19:36 | 47.51608 | -122.29430 | 32 ft | 7 kts | 288° |
| 2026-05-07 19:36 | 47.51641 | -122.29479 | 32 ft | 7 kts | 291° |
| 2026-05-07 19:37 | 47.51622 | -122.29542 | 31 ft | 5 kts | 239° |
| 2026-05-07 19:37 | 47.51620 | -122.29547 | 32 ft | 0 kts | 239° |